Time;durP1;ratioP1;P1;durP2;ratioP2;P2;SDS_P1;SDS_P2;PMS_P1;PMS_P2;Temp;Humidity;BMP_temperature;BMP_pressure;BME280_temperature;BME280_humidity;BME280_pressure;Samples;Min_cycle;Max_cycle;Signal;HPM_P1;HPM_P2
2021/06/28 00:00:57;;;;;;;15.05;9.95;;;;;;;17.96;78.24;99197.94;5020359;28;20123;-62
2021/06/28 00:03:22;;;;;;;16.00;10.95;;;;;;;17.80;79.99;99199.25;5032844;28;20133;-62
2021/06/28 00:05:49;;;;;;;16.63;10.93;;;;;;;17.84;80.30;99195.63;5032370;28;20045;-62
2021/06/28 00:08:14;;;;;;;12.77;10.70;;;;;;;17.93;80.34;99189.59;5031610;28;20018;-62
2021/06/28 00:10:40;;;;;;;15.27;11.38;;;;;;;17.84;80.85;99186.72;5032274;28;20061;-62
2021/06/28 00:13:05;;;;;;;17.52;11.00;;;;;;;17.76;80.84;99185.41;5032693;28;20018;-62
2021/06/28 00:15:32;;;;;;;15.43;11.55;;;;;;;17.85;80.76;99186.44;5026946;28;20054;-62
2021/06/28 00:17:57;;;;;;;13.40;11.13;;;;;;;18.11;79.22;99183.34;5012936;28;20026;-62
2021/06/28 00:20:23;;;;;;;15.90;11.57;;;;;;;18.07;78.95;99185.03;5015622;28;20041;-62
2021/06/28 00:22:48;;;;;;;14.02;11.13;;;;;;;18.03;79.39;99186.72;5032537;28;20395;-62
2021/06/28 00:25:16;;;;;;;11.13;9.73;;;;;;;17.93;79.10;99186.88;5014325;28;20033;-62
2021/06/28 00:27:42;;;;;;;13.60;9.27;;;;;;;17.82;79.88;99183.47;5032609;28;20026;-62
2021/06/28 00:30:08;;;;;;;12.20;8.90;;;;;;;17.69;79.76;99182.25;5032003;28;20029;-62
2021/06/28 00:32:34;;;;;;;13.18;8.90;;;;;;;17.59;79.92;99182.38;5032721;28;20021;-62
2021/06/28 00:35:00;;;;;;;13.85;10.70;;;;;;;17.42;80.91;99183.69;5032436;28;20040;-62
2021/06/28 00:37:25;;;;;;;13.38;9.52;;;;;;;17.39;81.48;99184.22;5030939;28;20033;-61
2021/06/28 00:39:51;;;;;;;13.70;9.93;;;;;;;17.48;81.21;99179.00;5032426;28;20018;-61
2021/06/28 00:42:16;;;;;;;12.05;9.50;;;;;;;17.53;80.70;99176.22;5032102;28;20029;-61
2021/06/28 00:44:41;;;;;;;14.55;10.07;;;;;;;17.28;82.04;99166.50;5031030;28;20363;-61
2021/06/28 00:47:07;;;;;;;16.65;10.30;;;;;;;17.22;82.28;99176.59;5014440;28;20107;-61
2021/06/28 00:49:32;;;;;;;12.00;9.73;;;;;;;17.29;82.04;99168.09;5032332;28;20025;-61
2021/06/28 00:51:58;;;;;;;13.35;9.70;;;;;;;17.32;82.09;99178.34;5033374;28;20037;-61
2021/06/28 00:54:24;;;;;;;15.70;10.43;;;;;;;17.33;81.84;99171.84;5036392;28;20033;-61
2021/06/28 00:56:50;;;;;;;14.15;10.70;;;;;;;17.24;82.24;99171.66;5035862;28;20369;-61
2021/06/28 00:59:16;;;;;;;13.82;11.13;;;;;;;17.18;82.67;99178.25;5035159;28;20091;-61
2021/06/28 01:01:41;;;;;;;15.95;10.93;;;;;;;17.21;82.23;99176.88;5034127;28;20061;-61
2021/06/28 01:04:07;;;;;;;15.15;11.27;;;;;;;17.30;82.28;99180.56;5036104;28;20030;-61
2021/06/28 01:06:32;;;;;;;16.58;11.35;;;;;;;17.43;81.53;99174.44;5021847;28;20034;-61
2021/06/28 01:08:58;;;;;;;14.80;11.48;;;;;;;17.45;81.53;99182.28;5014962;28;20030;-61
2021/06/28 01:11:23;;;;;;;15.02;10.55;;;;;;;17.48;80.82;99175.50;5025820;28;20037;-62
2021/06/28 01:13:49;;;;;;;14.68;10.25;;;;;;;17.16;81.22;99171.50;5035889;28;20045;-61
2021/06/28 01:16:14;;;;;;;13.38;10.48;;;;;;;17.04;81.80;99180.00;5017692;28;20041;-61
2021/06/28 01:18:40;;;;;;;17.92;10.32;;;;;;;16.96;82.30;99175.22;5035560;28;20442;-61
2021/06/28 01:21:06;;;;;;;15.38;11.18;;;;;;;16.81;83.21;99173.47;5017836;28;20041;-62
2021/06/28 01:23:32;;;;;;;14.48;11.32;;;;;;;16.71;84.43;99184.34;5035676;28;20104;-61
2021/06/28 01:26:06;;;;;;;14.25;11.73;;;;;;;16.88;84.30;99182.06;5035334;28;20033;-62
2021/06/28 01:28:32;;;;;;;14.05;11.85;;;;;;;16.95;83.40;99182.53;5034626;28;20030;-61
2021/06/28 01:30:59;;;;;;;18.52;10.50;;;;;;;17.30;81.22;99180.56;5035245;28;20480;-61
2021/06/28 01:33:24;;;;;;;14.13;10.13;;;;;;;17.61;79.79;99185.63;5035642;28;20105;-61
2021/06/28 01:35:49;;;;;;;15.07;10.98;;;;;;;17.16;81.95;99180.44;5035209;28;20376;-61
2021/06/28 01:38:15;;;;;;;15.77;12.23;;;;;;;16.87;83.61;99182.34;5035517;28;20037;-61
2021/06/28 01:40:40;;;;;;;19.08;11.98;;;;;;;16.94;83.57;99183.63;5011748;28;20045;-61
2021/06/28 01:43:06;;;;;;;18.05;11.98;;;;;;;16.99;82.66;99182.75;5014291;28;20062;-61
2021/06/28 01:45:32;;;;;;;17.50;11.40;;;;;;;16.92;82.58;99185.78;5019615;28;20124;-61
2021/06/28 01:47:58;;;;;;;15.25;10.80;;;;;;;16.88;82.39;99183.97;5034036;28;20079;-61
2021/06/28 01:50:24;;;;;;;15.98;10.95;;;;;;;16.87;82.47;99172.31;5033647;28;20025;-61
2021/06/28 01:52:50;;;;;;;16.58;11.88;;;;;;;16.77;82.70;99178.63;5033979;28;20029;-61
2021/06/28 01:55:16;;;;;;;17.30;10.63;;;;;;;16.63;83.10;99174.16;5034816;28;20040;-62
2021/06/28 01:57:46;;;;;;;20.35;11.50;;;;;;;16.50;84.15;99167.47;5035228;28;20526;-61
2021/06/28 02:00:13;;;;;;;18.63;12.00;;;;;;;16.46;85.31;99161.03;5033604;28;20036;-62
2021/06/28 02:02:38;;;;;;;17.50;12.27;;;;;;;16.50;85.30;99171.00;5034741;28;20400;-61
2021/06/28 02:05:05;;;;;;;17.05;12.85;;;;;;;16.63;84.74;99171.44;5033592;28;20120;-61
2021/06/28 02:07:31;;;;;;;16.60;12.13;;;;;;;16.62;84.45;99170.59;5013970;28;20057;-61
2021/06/28 02:09:56;;;;;;;14.35;11.70;;;;;;;16.64;84.41;99176.56;5015143;28;20068;-62
2021/06/28 02:12:22;;;;;;;18.05;11.82;;;;;;;16.63;84.48;99176.84;5034009;28;20075;-61
2021/06/28 02:14:47;;;;;;;14.35;10.60;;;;;;;16.63;83.46;99177.66;5035055;28;20030;-61
2021/06/28 02:17:13;;;;;;;12.82;10.88;;;;;;;16.49;84.34;99188.31;5034342;28;20033;-61
2021/06/28 02:19:38;;;;;;;15.82;11.32;;;;;;;16.38;85.00;99186.78;5034802;28;20044;-61
2021/06/28 02:22:03;;;;;;;18.95;12.70;;;;;;;16.48;85.43;99184.00;5034239;28;20038;-61
2021/06/28 02:24:29;;;;;;;20.58;13.75;;;;;;;16.65;85.49;99182.75;5034610;28;20084;-61
2021/06/28 02:26:54;;;;;;;22.27;11.73;;;;;;;16.69;84.27;99183.81;5034151;28;20034;-61
2021/06/28 02:29:20;;;;;;;15.10;11.80;;;;;;;16.59;84.73;99180.09;5033267;28;20025;-61
2021/06/28 02:31:45;;;;;;;21.08;16.45;;;;;;;16.60;86.54;99184.44;5034042;28;20033;-61
2021/06/28 02:34:11;;;;;;;22.42;14.25;;;;;;;16.78;84.06;99174.84;5034508;28;20032;-62
2021/06/28 02:36:36;;;;;;;25.60;17.05;;;;;;;16.50;87.01;99181.81;5032672;28;20454;-61
2021/06/28 02:39:02;;;;;;;25.85;17.23;;;;;;;16.48;87.62;99180.50;5034589;28;20490;-61
2021/06/28 02:41:27;;;;;;;24.10;15.73;;;;;;;16.74;85.91;99181.06;5022200;28;20041;-61
2021/06/28 02:43:53;;;;;;;27.23;16.92;;;;;;;16.68;86.53;99179.50;5014510;28;20025;-61
2021/06/28 02:46:19;;;;;;;23.30;16.30;;;;;;;16.71;86.37;99176.22;5024753;28;20488;-61
2021/06/28 02:48:44;;;;;;;25.92;15.05;;;;;;;16.74;84.30;99178.38;5034322;28;20173;-61
2021/06/28 02:51:11;;;;;;;17.17;11.40;;;;;;;16.53;83.77;99173.13;5033650;28;20463;-61
2021/06/28 02:53:36;;;;;;;25.35;11.50;;;;;;;16.49;83.19;99177.47;5034033;28;20456;-61
2021/06/28 02:56:15;;;;;;;21.65;11.25;;;;;;;16.45;83.15;99184.56;5033598;28;20037;-61
2021/06/28 02:58:41;;;;;;;16.95;11.32;;;;;;;16.37;84.05;99183.28;5034200;28;20052;-61
2021/06/28 03:01:07;;;;;;;16.45;10.85;;;;;;;16.34;83.58;99177.59;5024231;28;20041;-61
2021/06/28 03:03:32;;;;;;;19.92;12.05;;;;;;;16.25;84.25;99179.28;5012857;28;20034;-61
2021/06/28 03:05:57;;;;;;;16.63;11.85;;;;;;;16.01;85.93;99181.88;5021511;28;20041;-61
2021/06/28 03:08:23;;;;;;;21.80;12.73;;;;;;;15.99;86.27;99174.03;5034069;28;20036;-61
2021/06/28 03:10:48;;;;;;;18.20;13.57;;;;;;;16.18;85.60;99171.50;5033449;28;20562;-61
2021/06/28 03:13:14;;;;;;;23.70;12.90;;;;;;;16.24;86.05;99166.84;5033821;28;20032;-61
2021/06/28 03:15:39;;;;;;;22.90;12.70;;;;;;;16.20;85.44;99173.91;5033169;28;20038;-61
2021/06/28 03:18:05;;;;;;;20.05;13.05;;;;;;;16.02;86.87;99167.25;5032432;28;20076;-61
2021/06/28 03:20:30;;;;;;;25.65;15.60;;;;;;;16.10;87.99;99167.50;5033219;28;20049;-61
2021/06/28 03:22:56;;;;;;;26.45;16.98;;;;;;;16.09;88.30;99160.44;5032074;28;20032;-61
2021/06/28 03:25:21;;;;;;;29.75;19.27;;;;;;;16.09;89.38;99162.34;5033325;28;20033;-61
2021/06/28 03:27:47;;;;;;;31.88;21.20;;;;;;;16.21;89.23;99159.31;5033495;28;20099;-61
2021/06/28 03:30:13;;;;;;;28.40;20.88;;;;;;;16.26;88.97;99153.88;5033089;28;20076;-61
2021/06/28 03:32:39;;;;;;;30.23;19.67;;;;;;;16.42;88.64;99155.34;5033405;28;20033;-61
2021/06/28 03:35:05;;;;;;;33.35;18.77;;;;;;;16.74;86.51;99156.72;5032999;28;20120;-61
2021/06/28 03:37:30;;;;;;;25.92;18.55;;;;;;;16.94;85.22;99143.00;5033302;28;20451;-61
2021/06/28 03:39:56;;;;;;;24.10;16.90;;;;;;;17.15;84.31;99146.31;5033152;28;20036;-61
2021/06/28 03:42:21;;;;;;;22.65;16.65;;;;;;;17.41;82.48;99149.53;5032907;28;20103;-61
2021/06/28 03:44:47;;;;;;;19.33;14.95;;;;;;;17.31;82.46;99155.06;5033235;28;20029;-61
2021/06/28 03:47:12;;;;;;;24.10;13.05;;;;;;;17.23;81.48;99163.84;5014817;28;20034;-61
2021/06/28 03:49:37;;;;;;;22.83;12.77;;;;;;;17.08;81.26;99153.97;5013345;28;20033;-61
2021/06/28 03:52:03;;;;;;;25.30;12.77;;;;;;;16.95;81.29;99155.47;5029586;28;20389;-61
2021/06/28 03:54:29;;;;;;;24.88;12.77;;;;;;;16.84;81.97;99145.81;5033228;28;20104;-61
2021/06/28 03:56:54;;;;;;;19.23;12.30;;;;;;;17.00;81.57;99143.78;5032684;28;20488;-62
2021/06/28 03:59:20;;;;;;;18.92;12.57;;;;;;;16.95;82.18;99141.13;5032997;28;20456;-62
2021/06/28 04:01:45;;;;;;;21.77;13.60;;;;;;;16.96;81.87;99137.31;5032494;28;20057;-61
2021/06/28 04:04:11;;;;;;;21.40;13.10;;;;;;;16.84;82.60;99129.59;5031522;28;20468;-61
2021/06/28 04:06:36;;;;;;;24.90;12.80;;;;;;;16.90;81.33;99133.88;5032683;28;20034;-61
2021/06/28 04:09:02;;;;;;;24.48;12.88;;;;;;;16.91;81.67;99135.47;5033125;28;20139;-61
2021/06/28 04:11:29;;;;;;;26.13;13.15;;;;;;;16.74;82.80;99140.47;5032479;28;20040;-61
2021/06/28 04:13:55;;;;;;;19.50;13.35;;;;;;;16.58;84.54;99145.22;5032894;28;20029;-61
2021/06/28 04:16:21;;;;;;;22.85;12.93;;;;;;;16.94;83.39;99147.63;5021522;28;20038;-61
2021/06/28 04:18:46;;;;;;;18.13;14.25;;;;;;;17.79;79.66;99138.75;5013043;28;20029;-61
2021/06/28 04:21:12;;;;;;;18.52;13.18;;;;;;;18.27;77.77;99138.66;5020964;28;20040;-61
2021/06/28 04:23:37;;;;;;;17.27;11.88;;;;;;;18.99;74.18;99142.84;5032694;28;20029;-61
2021/06/28 04:26:03;;;;;;;22.60;11.68;;;;;;;20.37;68.55;99137.25;5031923;28;20038;-62
2021/06/28 04:28:29;;;;;;;15.35;11.02;;;;;;;21.35;64.85;99137.44;5031432;28;20037;-62
2021/06/28 04:30:55;;;;;;;20.27;10.63;;;;;;;19.76;70.27;99150.31;5032276;28;20121;-62
2021/06/28 04:33:20;;;;;;;23.52;12.20;;;;;;;20.64;67.96;99163.56;5032715;28;20160;-62
2021/06/28 04:35:45;;;;;;;18.30;11.32;;;;;;;22.04;62.97;99162.16;5032292;28;20042;-62
2021/06/28 04:38:11;;;;;;;19.30;12.57;;;;;;;20.14;69.42;99154.66;5032541;28;20021;-62
2021/06/28 04:40:36;;;;;;;16.55;11.95;;;;;;;19.61;72.41;99148.69;5032312;28;20041;-62
2021/06/28 04:43:02;;;;;;;20.30;11.93;;;;;;;19.40;72.97;99163.81;5031388;28;20092;-62
2021/06/28 04:45:28;;;;;;;24.20;11.68;;;;;;;19.85;71.49;99174.88;5032121;28;20026;-62
2021/06/28 04:47:53;;;;;;;22.40;12.40;;;;;;;19.95;72.65;99188.28;5032611;28;20021;-62
2021/06/28 04:50:22;;;;;;;21.67;12.48;;;;;;;21.18;67.81;99193.50;5032339;28;20376;-62
2021/06/28 04:52:48;;;;;;;23.13;12.82;;;;;;;21.04;67.85;99200.94;5032756;28;20029;-62
2021/06/28 04:55:14;;;;;;;21.52;13.45;;;;;;;20.21;71.53;99206.75;5030783;28;20029;-62
2021/06/28 04:57:39;;;;;;;20.95;14.15;;;;;;;19.45;74.87;99209.94;5032551;28;20029;-62
2021/06/28 05:00:07;;;;;;;21.10;14.10;;;;;;;19.08;76.75;99208.97;5032156;28;20049;-62
2021/06/28 05:02:32;;;;;;;20.27;13.70;;;;;;;18.96;77.42;99203.22;5032252;28;20050;-61
2021/06/28 05:04:58;;;;;;;28.42;13.27;;;;;;;18.81;77.35;99209.72;5031087;28;20163;-62
2021/06/28 05:07:23;;;;;;;25.13;13.05;;;;;;;18.44;79.34;99195.06;5012561;28;20034;-61
2021/06/28 05:09:49;;;;;;;20.70;12.20;;;;;;;18.55;78.24;99195.72;5012885;28;20077;-61
2021/06/28 05:12:15;;;;;;;19.25;12.68;;;;;;;18.49;78.91;99196.91;5030400;28;20501;-62
2021/06/28 05:14:40;;;;;;;16.95;12.25;;;;;;;18.69;77.38;99199.28;5031095;28;20476;-62
2021/06/28 05:17:07;;;;;;;22.20;13.18;;;;;;;18.89;77.08;99187.28;5032398;28;20530;-64
2021/06/28 05:19:32;;;;;;;26.17;13.25;;;;;;;19.31;75.72;99203.66;5031499;28;20021;-61
2021/06/28 05:21:58;;;;;;;21.02;12.00;;;;;;;22.43;63.87;99215.03;5030679;28;20050;-61
2021/06/28 05:24:23;;;;;;;15.82;10.38;;;;;;;24.48;56.38;99191.34;5032185;28;20056;-62
2021/06/28 05:26:49;;;;;;;18.50;9.63;;;;;;;24.39;56.49;99187.84;5030437;28;20049;-62
2021/06/28 05:29:14;;;;;;;20.77;10.10;;;;;;;21.40;65.94;99180.94;5030583;28;20025;-62
2021/06/28 05:31:40;;;;;;;17.10;10.82;;;;;;;20.88;67.99;99185.00;5018344;28;20026;-62
2021/06/28 05:34:05;;;;;;;22.38;12.00;;;;;;;19.10;75.38;99182.31;5013019;28;20030;-62
2021/06/28 05:36:31;;;;;;;18.73;12.43;;;;;;;19.52;74.37;99183.16;5023062;28;20476;-62
2021/06/28 05:38:56;;;;;;;24.08;13.40;;;;;;;19.37;75.35;99191.63;5031999;28;20048;-61
2021/06/28 05:41:21;;;;;;;31.85;14.23;;;;;;;19.03;76.73;99198.19;5035351;28;20030;-61
2021/06/28 05:43:47;;;;;;;25.52;14.35;;;;;;;19.02;77.20;99198.50;5035514;28;20029;-61
2021/06/28 05:46:13;;;;;;;23.27;13.75;;;;;;;19.07;76.93;99199.22;5025219;28;20034;-61
2021/06/28 05:48:38;;;;;;;22.88;13.95;;;;;;;18.64;79.69;99202.06;4998111;28;20062;-61
2021/06/28 05:51:04;;;;;;;26.15;15.07;;;;;;;18.85;78.33;99197.16;5023874;28;20079;-61
2021/06/28 05:53:29;;;;;;;24.67;15.05;;;;;;;19.06;77.69;99203.03;5034011;28;20030;-61
2021/06/28 05:55:58;;;;;;;22.13;15.20;;;;;;;19.22;76.48;99186.44;5034998;28;20400;-61
2021/06/28 05:58:25;;;;;;;23.40;13.32;;;;;;;19.40;75.97;99172.78;5035287;28;20025;-61
2021/06/28 06:00:51;;;;;;;20.08;13.10;;;;;;;19.61;74.82;99170.44;5033320;28;20088;-61
2021/06/28 06:03:16;;;;;;;16.38;12.95;;;;;;;19.77;74.50;99175.63;5035622;28;20395;-61
2021/06/28 06:05:42;;;;;;;19.40;13.70;;;;;;;19.59;75.13;99178.13;5034674;28;20041;-61
2021/06/28 06:08:07;;;;;;;24.30;12.93;;;;;;;19.43;76.02;99173.28;5035456;28;20072;-61
2021/06/28 06:10:33;;;;;;;19.92;13.40;;;;;;;19.55;75.16;99171.66;5033351;28;20096;-61
2021/06/28 06:12:58;;;;;;;19.65;13.90;;;;;;;19.71;74.82;99174.91;5035163;28;20080;-61
2021/06/28 06:15:24;;;;;;;21.23;13.07;;;;;;;19.93;74.29;99170.63;5034748;28;20137;-61
2021/06/28 06:17:49;;;;;;;18.60;13.05;;;;;;;21.58;67.96;99174.44;5033666;28;20101;-61
2021/06/28 06:20:14;;;;;;;14.55;12.18;;;;;;;22.12;64.35;99176.94;5034643;28;20028;-62
2021/06/28 06:22:40;;;;;;;21.10;13.07;;;;;;;22.08;65.47;99179.50;5035026;28;20116;-61
2021/06/28 06:25:06;;;;;;;19.17;12.20;;;;;;;25.12;55.05;99181.84;5000458;28;20029;-62
2021/06/28 06:27:31;;;;;;;15.98;11.77;;;;;;;26.69;50.23;99180.41;5034760;28;20479;-62
2021/06/28 06:29:57;;;;;;;19.88;11.05;;;;;;;28.22;46.14;99195.53;5034588;28;20464;-62
2021/06/28 06:32:23;;;;;;;18.48;11.07;;;;;;;28.46;45.26;99194.50;5034262;28;20045;-62
2021/06/28 06:34:48;;;;;;;16.70;10.00;;;;;;;29.84;42.00;99198.09;5034719;28;20022;-62
2021/06/28 06:37:14;;;;;;;14.65;10.50;;;;;;;30.49;40.97;99199.78;5016065;28;20068;-62
2021/06/28 06:39:40;;;;;;;20.67;10.95;;;;;;;30.33;41.20;99203.91;5014971;28;20387;-62
2021/06/28 06:42:05;;;;;;;17.20;10.57;;;;;;;31.22;38.89;99195.81;5031362;28;20037;-62
2021/06/28 06:44:31;;;;;;;16.52;9.82;;;;;;;31.24;38.83;99198.97;5033125;28;20468;-62
2021/06/28 06:46:56;;;;;;;20.48;10.20;;;;;;;31.41;38.61;99206.69;5032197;28;20056;-62
2021/06/28 06:49:22;;;;;;;24.65;9.98;;;;;;;32.77;35.99;99214.97;5033774;28;20032;-62
2021/06/28 06:51:47;;;;;;;22.00;8.93;;;;;;;32.27;37.01;99215.56;5032693;28;20029;-63
2021/06/28 06:54:13;;;;;;;17.75;10.00;;;;;;;30.23;40.20;99206.16;5034495;28;20017;-62
2021/06/28 06:56:38;;;;;;;18.23;8.68;;;;;;;29.36;42.92;99206.00;5020677;28;20489;-63
2021/06/28 06:59:04;;;;;;;11.35;7.60;;;;;;;29.83;40.83;99204.00;5013286;28;20132;-62
2021/06/28 07:01:31;;;;;;;16.50;8.23;;;;;;;31.74;36.95;99214.03;5026045;28;20538;-62
2021/06/28 07:03:56;;;;;;;11.85;8.38;;;;;;;29.00;42.87;99201.81;5034131;28;20037;-62
2021/06/28 07:06:22;;;;;;;12.35;7.38;;;;;;;32.57;35.26;99211.75;5033730;28;20038;-62
2021/06/28 07:08:47;;;;;;;11.10;7.60;;;;;;;29.08;42.32;99208.28;5034087;28;20033;-62
2021/06/28 07:11:13;;;;;;;11.00;8.85;;;;;;;27.00;47.12;99207.16;5015778;28;20044;-62
2021/06/28 07:13:39;;;;;;;14.18;8.52;;;;;;;26.27;49.59;99204.69;5033767;28;20030;-62
2021/06/28 07:16:05;;;;;;;11.88;8.27;;;;;;;27.75;46.04;99206.28;5033582;28;20048;-62
2021/06/28 07:18:30;;;;;;;13.02;8.40;;;;;;;29.38;41.00;99192.66;5034014;28;20017;-62
2021/06/28 07:20:55;;;;;;;11.50;7.72;;;;;;;27.23;46.24;99201.91;5026101;28;20042;-62
2021/06/28 07:23:21;;;;;;;11.05;7.97;;;;;;;28.90;42.48;99194.91;5013986;28;20053;-62
2021/06/28 07:25:46;;;;;;;13.23;8.07;;;;;;;28.96;42.01;99199.00;5019794;28;20038;-62
2021/06/28 07:28:12;;;;;;;12.88;7.93;;;;;;;28.47;42.25;99194.09;5032150;28;20080;-63
2021/06/28 07:30:37;;;;;;;9.27;7.68;;;;;;;29.59;40.68;99202.44;5033244;28;20104;-62
2021/06/28 07:33:03;;;;;;;9.07;7.25;;;;;;;32.04;35.43;99217.81;5033432;28;20030;-62
2021/06/28 07:35:29;;;;;;;13.55;7.32;;;;;;;31.69;36.46;99219.16;5031835;28;20051;-63
2021/06/28 07:37:54;;;;;;;9.43;6.50;;;;;;;32.71;34.57;99217.34;5033041;28;20018;-63
2021/06/28 07:40:19;;;;;;;10.55;6.82;;;;;;;32.39;35.29;99211.66;5032959;28;20032;-63
2021/06/28 07:42:46;;;;;;;8.07;6.82;;;;;;;32.67;33.76;99199.88;5033432;28;20026;-62
2021/06/28 07:45:13;;;;;;;7.13;6.40;;;;;;;32.97;33.86;99195.97;5031506;28;20540;-62
2021/06/28 07:47:39;;;;;;;8.35;6.85;;;;;;;31.72;36.10;99204.53;5013709;28;20030;-62
2021/06/28 07:50:05;;;;;;;8.23;6.50;;;;;;;29.06;42.02;99191.31;5013853;28;20096;-63
2021/06/28 07:52:30;;;;;;;9.38;6.15;;;;;;;28.20;43.40;99200.59;5033386;28;20488;-62
2021/06/28 07:54:56;;;;;;;15.10;7.90;;;;;;;26.77;46.97;99193.19;5031919;28;20021;-62
2021/06/28 07:57:22;;;;;;;9.85;7.53;;;;;;;27.33;46.66;99192.28;5031487;28;20065;-62
2021/06/28 07:59:47;;;;;;;12.55;7.38;;;;;;;27.27;44.89;99194.50;5032020;28;20079;-62
2021/06/28 08:02:12;;;;;;;9.60;7.30;;;;;;;29.84;40.45;99192.56;5031828;28;20037;-62
2021/06/28 08:04:38;;;;;;;10.55;6.47;;;;;;;31.77;37.44;99198.63;5031747;28;20037;-62
2021/06/28 08:07:03;;;;;;;9.60;6.40;;;;;;;28.94;40.96;99206.03;5032555;28;20042;-62
2021/06/28 08:09:29;;;;;;;8.20;5.78;;;;;;;30.69;38.44;99191.31;5032924;28;20037;-62
2021/06/28 08:11:57;;;;;;;7.97;6.28;;;;;;;28.56;42.72;99183.66;5032718;28;20037;-62
2021/06/28 08:14:23;;;;;;;7.97;6.60;;;;;;;25.96;48.38;99184.97;5031821;28;20487;-61
2021/06/28 08:16:48;;;;;;;8.80;6.18;;;;;;;30.12;39.80;99180.31;5017617;28;20046;-61
2021/06/28 08:19:14;;;;;;;8.45;6.10;;;;;;;32.25;35.33;99184.66;5013127;28;20026;-61
2021/06/28 08:21:39;;;;;;;8.63;6.80;;;;;;;29.32;41.16;99183.06;5026180;28;20038;-61
2021/06/28 08:24:06;;;;;;;9.45;6.60;;;;;;;30.95;38.67;99193.16;5032756;28;20053;-62
2021/06/28 08:26:32;;;;;;;9.57;6.75;;;;;;;29.88;41.25;99198.97;5014494;28;20045;-61
2021/06/28 08:29:02;;;;;;;9.68;6.22;;;;;;;29.78;40.42;99199.59;5032642;28;20361;-61
2021/06/28 08:31:27;;;;;;;8.63;6.43;;;;;;;28.85;42.74;99203.50;5032172;28;20033;-61
2021/06/28 08:33:52;;;;;;;10.25;6.32;;;;;;;29.50;41.65;99199.13;5031244;28;20033;-62
2021/06/28 08:36:18;;;;;;;10.75;6.50;;;;;;;30.39;39.36;99199.66;5032417;28;20044;-62
2021/06/28 08:38:43;;;;;;;7.93;6.30;;;;;;;29.45;42.50;99198.28;5032668;28;20044;-61
2021/06/28 08:41:15;;;;;;;10.75;7.35;;;;;;;29.45;42.45;99203.00;5022809;28;20042;-61
2021/06/28 08:43:44;;;;;;;6.93;6.10;;;;;;;29.43;42.90;99195.09;5011574;28;20022;-62
2021/06/28 08:46:10;;;;;;;9.05;6.13;;;;;;;29.82;42.15;99205.97;5021928;28;20471;-62
2021/06/28 08:48:36;;;;;;;9.55;6.50;;;;;;;31.30;39.71;99214.06;5031387;28;20030;-62
2021/06/28 08:51:01;;;;;;;8.57;6.20;;;;;;;29.71;41.84;99205.03;5014362;28;20037;-62
2021/06/28 08:53:27;;;;;;;15.00;6.50;;;;;;;28.67;44.38;99202.38;5014856;28;20026;-62
2021/06/28 08:55:52;;;;;;;9.63;6.03;;;;;;;28.81;45.31;99208.16;5030771;28;20038;-62
2021/06/28 08:58:19;;;;;;;10.15;6.72;;;;;;;27.59;48.53;99208.25;5032467;28;20033;-62
2021/06/28 09:00:45;;;;;;;10.43;7.10;;;;;;;27.91;48.75;99222.03;5008333;28;20050;-62
2021/06/28 09:03:10;;;;;;;9.38;6.38;;;;;;;26.42;51.58;99220.44;5012841;28;20766;-62
2021/06/28 09:06:06;;;;;;;7.72;6.57;;;;;;;27.22;49.40;99219.53;5012353;28;20034;-62
2021/06/28 09:08:32;;;;;;;10.52;6.47;;;;;;;26.30;51.43;99210.28;5011482;28;20033;-63
2021/06/28 09:10:58;;;;;;;11.38;6.22;;;;;;;26.31;51.73;99214.66;5020164;28;20091;-62
2021/06/28 09:13:46;;;;;;;7.88;6.28;;;;;;;26.49;51.27;99217.91;5033040;28;20026;-61
2021/06/28 09:16:21;;;;;;;12.35;6.55;;;;;;;25.70;54.16;99217.44;5035628;28;20168;-61
2021/06/28 09:18:57;;;;;;;7.97;6.40;;;;;;;27.86;47.83;99230.56;5036082;28;20025;-61
2021/06/28 09:21:43;;;;;;;8.75;6.18;;;;;;;26.49;50.45;99225.34;5035614;28;20140;-61
2021/06/28 09:24:41;;;;;;;8.98;6.05;;;;;;;29.34;44.70;99215.84;5021968;28;20049;-61
2021/06/28 09:27:10;;;;;;;8.10;5.90;;;;;;;30.25;41.33;99231.47;5034352;28;20121;-61
2021/06/28 09:29:40;;;;;;;8.40;5.27;;;;;;;28.83;43.50;99233.44;5035648;28;20045;-61
2021/06/28 09:32:12;;;;;;;6.88;5.53;;;;;;;30.63;40.28;99232.34;5018149;28;20038;-61
2021/06/28 09:34:39;;;;;;;6.57;5.47;;;;;;;27.70;46.70;99234.06;5016008;28;20030;-61
2021/06/28 09:37:05;;;;;;;9.65;5.57;;;;;;;28.95;43.80;99230.47;5032548;28;20095;-61
2021/06/28 09:39:38;;;;;;;8.73;5.40;;;;;;;29.75;42.76;99236.22;5035718;28;20025;-61
2021/06/28 09:42:06;;;;;;;9.70;5.50;;;;;;;30.00;41.08;99227.53;5035299;28;20033;-61
2021/06/28 09:44:32;;;;;;;7.17;5.40;;;;;;;29.73;42.20;99229.50;5035762;28;20058;-62
2021/06/28 09:47:07;;;;;;;8.70;5.35;;;;;;;30.92;38.88;99218.84;5034008;28;20419;-61
2021/06/28 09:49:32;;;;;;;5.35;4.50;;;;;;;31.47;37.08;99223.72;5036114;28;20113;-63
2021/06/28 09:51:58;;;;;;;7.15;5.30;;;;;;;29.50;41.51;99226.72;5035217;28;20042;-62
2021/06/28 09:54:23;;;;;;;5.53;4.85;;;;;;;27.59;45.96;99205.50;5034522;28;20472;-62
2021/06/28 09:56:55;;;;;;;7.72;4.65;;;;;;;28.86;42.06;99216.13;5035001;28;20557;-62
2021/06/28 09:59:38;;;;;;;6.60;4.88;;;;;;;30.31;39.74;99218.91;5034083;28;20105;-62
2021/06/28 10:02:25;;;;;;;6.07;4.72;;;;;;;32.41;35.56;99221.16;5034775;28;20404;-62
2021/06/28 10:07:23;;;;;;;8.48;4.60;;;;;;;29.52;40.30;99214.16;5015548;28;20052;-62
2021/06/28 10:10:07;;;;;;;9.52;5.18;;;;;;;27.95;44.91;99200.84;5015521;28;20022;-62
2021/06/28 10:12:32;;;;;;;6.72;4.90;;;;;;;29.21;42.26;99201.44;5015090;28;20065;-62
2021/06/28 10:14:58;;;;;;;7.68;4.70;;;;;;;29.87;40.98;99208.41;5015310;28;20025;-62
2021/06/28 10:17:24;;;;;;;7.20;4.70;;;;;;;29.02;40.96;99205.00;5034529;28;20487;-62
2021/06/28 10:19:49;;;;;;;6.50;4.65;;;;;;;29.54;41.49;99211.03;5035231;28;20053;-62
2021/06/28 10:22:15;;;;;;;7.28;4.80;;;;;;;29.91;39.91;99210.44;5015982;28;20484;-62
2021/06/28 10:24:40;;;;;;;6.40;4.50;;;;;;;29.99;40.00;99201.06;5014485;28;20108;-62
2021/06/28 10:27:06;;;;;;;6.93;5.07;;;;;;;30.26;41.01;99202.66;5030758;28;20431;-62
2021/06/28 10:29:34;;;;;;;8.45;4.88;;;;;;;31.01;38.20;99205.50;5034784;28;20018;-62
2021/06/28 10:32:05;;;;;;;7.80;4.55;;;;;;;30.22;39.65;99204.53;5033193;28;20522;-62
2021/06/28 10:34:30;;;;;;;6.10;4.57;;;;;;;31.06;38.09;99198.84;5033490;28;20139;-62
2021/06/28 10:36:57;;;;;;;7.05;4.75;;;;;;;30.18;38.66;99198.19;5034323;28;20037;-62
2021/06/28 10:39:30;;;;;;;8.63;4.97;;;;;;;30.68;37.94;99176.69;5034663;28;20036;-62
2021/06/28 10:41:56;;;;;;;6.00;4.22;;;;;;;30.21;39.70;99178.09;5034167;28;20044;-62
2021/06/28 10:44:21;;;;;;;7.70;5.07;;;;;;;30.71;38.35;99178.69;5034662;28;20117;-62
2021/06/28 10:46:51;;;;;;;7.40;5.03;;;;;;;31.12;37.53;99169.63;5034140;28;20033;-62
2021/06/28 10:49:47;;;;;;;5.75;4.30;;;;;;;29.49;40.32;99165.19;5034436;28;20022;-62
2021/06/28 10:52:34;;;;;;;6.35;4.40;;;;;;;30.28;40.63;99164.38;5033886;28;20068;-62
2021/06/28 10:55:21;;;;;;;6.72;4.88;;;;;;;32.17;35.46;99166.41;5032996;28;20029;-62
2021/06/28 10:57:48;;;;;;;5.63;4.47;;;;;;;31.68;35.86;99165.72;5014420;28;20048;-62
2021/06/28 11:00:14;;;;;;;5.78;4.90;;;;;;;29.59;41.02;99167.31;5012950;28;20029;-62
2021/06/28 11:02:40;;;;;;;7.47;4.85;;;;;;;31.53;36.94;99173.16;5014304;28;20052;-62
2021/06/28 11:05:06;;;;;;;6.32;4.47;;;;;;;31.11;37.62;99168.81;5014270;28;20029;-62
2021/06/28 11:07:42;;;;;;;6.18;4.57;;;;;;;30.66;38.37;99164.41;5014510;28;20026;-62
2021/06/28 11:10:13;;;;;;;8.82;4.90;;;;;;;31.24;38.10;99166.56;5014086;28;20112;-62
2021/06/28 11:12:38;;;;;;;6.07;4.70;;;;;;;31.10;37.15;99164.47;5014375;28;20020;-62
2021/06/28 11:15:10;;;;;;;8.30;4.65;;;;;;;30.89;38.24;99158.75;5013849;28;20026;-62
2021/06/28 11:17:50;;;;;;;8.45;4.57;;;;;;;31.74;36.75;99155.06;5014106;28;20029;-62
2021/06/28 11:20:40;;;;;;;5.43;4.43;;;;;;;32.15;36.55;99146.59;5012526;28;20112;-62
2021/06/28 11:23:07;;;;;;;5.88;4.45;;;;;;;32.63;35.15;99149.16;5014228;28;20029;-62